Time;durP1;ratioP1;P1;durP2;ratioP2;P2;SDS_P1;SDS_P2;PMS_P1;PMS_P2;Temp;Humidity;BMP_temperature;BMP_pressure;BME280_temperature;BME280_humidity;BME280_pressure;Samples;Min_cycle;Max_cycle;Signal;HPM_P1;HPM_P2
2023/09/16 00:01:04;;;;;;;5.28;4.78;;;19.90;70.80;;;;;;5035964;28;20033;-68
2023/09/16 00:03:32;;;;;;;5.53;4.97;;;19.90;70.90;;;;;;5034904;28;20060;-68
2023/09/16 00:05:57;;;;;;;5.32;4.78;;;19.80;70.80;;;;;;5016016;28;20384;-69
2023/09/16 00:08:23;;;;;;;6.50;4.95;;;19.80;70.80;;;;;;5018235;28;20030;-68
2023/09/16 00:10:48;;;;;;;5.60;4.50;;;19.80;71.20;;;;;;5036816;28;20386;-68
2023/09/16 00:13:14;;;;;;;7.15;4.68;;;19.80;70.60;;;;;;5036439;28;20038;-68
2023/09/16 00:15:40;;;;;;;4.70;4.20;;;19.70;70.50;;;;;;5035989;28;20029;-68
2023/09/16 00:18:05;;;;;;;4.97;4.43;;;19.70;70.60;;;;;;5033046;28;20021;-68
2023/09/16 00:20:31;;;;;;;5.03;4.53;;;19.70;70.60;;;;;;5023691;28;20431;-68
2023/09/16 00:22:57;;;;;;;6.95;4.38;;;19.70;70.40;;;;;;5033785;28;20025;-68
2023/09/16 00:25:23;;;;;;;5.32;4.28;;;19.70;70.50;;;;;;5017884;28;20026;-68
2023/09/16 00:27:48;;;;;;;4.70;4.20;;;19.60;70.40;;;;;;5016625;28;20030;-69
2023/09/16 00:30:14;;;;;;;4.57;4.07;;;19.60;70.40;;;;;;5025719;28;20053;-69
2023/09/16 00:32:40;;;;;;;4.72;4.20;;;19.60;70.40;;;;;;5019262;28;20038;-69
2023/09/16 00:35:06;;;;;;;4.85;4.30;;;19.60;70.30;;;;;;5034800;28;20052;-69
2023/09/16 00:37:32;;;;;;;4.68;4.20;;;19.50;70.30;;;;;;5036734;28;20367;-68
2023/09/16 00:39:57;;;;;;;5.50;4.72;;;19.50;70.30;;;;;;5024854;28;20032;-69
2023/09/16 00:42:23;;;;;;;6.20;4.80;;;19.50;70.20;;;;;;5016386;28;20034;-68
2023/09/16 00:44:49;;;;;;;5.63;4.30;;;19.40;70.20;;;;;;5015118;28;20029;-69
2023/09/16 00:47:15;;;;;;;5.05;4.55;;;19.40;70.20;;;;;;5016573;28;20021;-69
2023/09/16 00:49:41;;;;;;;6.15;4.55;;;19.40;70.30;;;;;;5016342;28;20487;-68
2023/09/16 00:52:07;;;;;;;6.70;4.38;;;19.30;70.30;;;;;;5016994;28;20061;-69
2023/09/16 00:54:34;;;;;;;5.35;4.65;;;19.30;70.30;;;;;;5016083;28;20054;-69
2023/09/16 00:57:01;;;;;;;4.95;4.45;;;19.30;70.20;;;;;;5017189;28;20029;-68
2023/09/16 00:59:28;;;;;;;5.53;4.40;;;19.30;70.20;;;;;;5020893;28;20105;-69
2023/09/16 01:01:55;;;;;;;5.00;4.30;;;19.20;70.20;;;;;;5034533;28;20099;-68
2023/09/16 01:04:24;;;;;;;5.13;4.10;;;19.20;70.20;;;;;;5026553;28;20030;-69
2023/09/16 01:06:51;;;;;;;4.32;3.80;;;19.30;70.30;;;;;;5016404;28;20045;-68
2023/09/16 01:09:19;;;;;;;4.45;4.00;;;19.20;70.30;;;;;;5014674;28;20051;-68
2023/09/16 01:11:45;;;;;;;5.00;4.22;;;19.20;70.20;;;;;;5014711;28;20048;-68
2023/09/16 01:14:11;;;;;;;5.00;3.95;;;19.20;70.10;;;;;;5014665;28;20033;-69
2023/09/16 01:16:40;;;;;;;5.57;3.90;;;19.20;70.10;;;;;;5025472;28;20053;-69
2023/09/16 01:19:27;;;;;;;6.55;3.95;;;19.20;70.10;;;;;;5029409;28;20026;-68
2023/09/16 01:21:54;;;;;;;5.22;4.03;;;19.10;70.00;;;;;;5015823;28;20080;-68
2023/09/16 01:24:24;;;;;;;4.50;4.05;;;19.10;70.00;;;;;;5015460;28;20034;-68
2023/09/16 01:26:51;;;;;;;4.82;4.05;;;19.10;70.00;;;;;;5032776;28;20460;-68
2023/09/16 01:29:19;;;;;;;5.32;4.10;;;19.10;70.00;;;;;;5018787;28;20026;-69
2023/09/16 01:31:46;;;;;;;4.07;3.67;;;19.10;70.00;;;;;;5033378;28;20125;-68
2023/09/16 01:34:36;;;;;;;4.50;3.90;;;19.10;70.00;;;;;;5022504;28;20037;-68
2023/09/16 01:37:04;;;;;;;4.50;3.72;;;19.10;69.80;;;;;;5015316;28;20040;-69
2023/09/16 01:39:31;;;;;;;4.07;3.63;;;19.00;69.90;;;;;;5014080;28;20033;-68
2023/09/16 01:41:59;;;;;;;4.20;3.80;;;19.00;69.80;;;;;;5032060;28;20068;-68
2023/09/16 01:44:24;;;;;;;5.03;4.05;;;19.00;69.90;;;;;;5016326;28;20048;-69
2023/09/16 01:46:54;;;;;;;4.85;3.90;;;19.00;69.90;;;;;;5014575;28;20464;-68
2023/09/16 01:49:20;;;;;;;4.60;3.78;;;18.90;69.80;;;;;;5013904;28;20476;-69
2023/09/16 01:51:46;;;;;;;6.07;3.80;;;18.90;69.80;;;;;;5014896;28;20097;-68
2023/09/16 01:54:11;;;;;;;4.85;4.05;;;18.90;69.80;;;;;;5026010;28;20048;-68
2023/09/16 01:56:37;;;;;;;4.80;3.90;;;18.90;69.80;;;;;;5034624;28;20026;-69
2023/09/16 01:59:03;;;;;;;4.25;3.58;;;18.90;70.00;;;;;;5027318;28;20385;-68
2023/09/16 02:01:29;;;;;;;3.95;3.50;;;18.80;69.90;;;;;;5014977;28;20033;-69
2023/09/16 02:03:55;;;;;;;4.97;4.18;;;18.80;69.80;;;;;;5023961;28;20037;-68
2023/09/16 02:06:21;;;;;;;4.22;3.67;;;18.80;69.80;;;;;;5034730;28;20037;-68
2023/09/16 02:08:47;;;;;;;4.80;4.00;;;18.80;69.90;;;;;;5034520;28;20040;-68
2023/09/16 02:11:12;;;;;;;4.68;4.10;;;18.70;69.80;;;;;;5034010;28;20034;-68
2023/09/16 02:13:38;;;;;;;4.97;3.63;;;18.70;69.80;;;;;;5032101;28;20404;-68
2023/09/16 02:16:04;;;;;;;4.00;3.60;;;18.70;69.80;;;;;;5034308;28;20032;-68
2023/09/16 02:18:30;;;;;;;4.03;3.50;;;18.70;69.80;;;;;;5028885;28;20041;-69
2023/09/16 02:20:55;;;;;;;4.05;3.65;;;18.70;69.80;;;;;;5014708;28;20033;-69
2023/09/16 02:23:22;;;;;;;4.40;3.83;;;18.70;69.80;;;;;;5019936;28;20034;-68
2023/09/16 02:25:48;;;;;;;5.07;3.88;;;18.70;69.70;;;;;;5014656;28;20036;-69
2023/09/16 02:28:13;;;;;;;3.85;3.42;;;18.70;69.70;;;;;;5020630;28;20029;-68
2023/09/16 02:30:39;;;;;;;4.60;3.80;;;18.70;69.70;;;;;;5033941;28;20368;-68
2023/09/16 02:33:05;;;;;;;4.35;3.53;;;18.70;69.70;;;;;;5032473;28;20052;-69
2023/09/16 02:35:30;;;;;;;4.85;3.80;;;18.60;69.60;;;;;;5032689;28;20037;-68
2023/09/16 02:37:58;;;;;;;4.63;3.63;;;18.60;69.70;;;;;;5022190;28;20424;-68
2023/09/16 02:40:24;;;;;;;5.18;3.60;;;18.60;69.70;;;;;;5032985;28;20028;-69
2023/09/16 02:42:50;;;;;;;4.05;3.45;;;18.60;69.80;;;;;;5027093;28;20030;-69
2023/09/16 02:45:16;;;;;;;4.60;3.90;;;18.60;69.80;;;;;;5030185;28;20041;-68
2023/09/16 02:47:41;;;;;;;5.55;3.53;;;18.60;69.70;;;;;;5032427;28;20030;-68
2023/09/16 02:50:07;;;;;;;5.25;3.65;;;18.60;69.70;;;;;;5033076;28;20032;-69
2023/09/16 02:52:33;;;;;;;4.25;3.55;;;18.60;69.70;;;;;;5029547;28;20123;-69
2023/09/16 02:54:58;;;;;;;4.30;3.58;;;18.60;69.70;;;;;;5028986;28;20511;-68
2023/09/16 02:57:24;;;;;;;4.95;3.90;;;18.60;69.70;;;;;;5032164;28;20112;-68
2023/09/16 02:59:50;;;;;;;4.53;3.72;;;18.70;69.80;;;;;;5014787;28;20040;-69
2023/09/16 03:02:15;;;;;;;4.15;3.72;;;18.60;69.70;;;;;;5016786;28;20410;-68
2023/09/16 03:04:41;;;;;;;4.93;3.53;;;18.60;69.70;;;;;;5013812;28;20460;-68
2023/09/16 03:07:07;;;;;;;6.50;3.80;;;18.60;69.70;;;;;;5027076;28;20052;-68
2023/09/16 03:09:33;;;;;;;5.13;3.97;;;18.70;69.60;;;;;;5033424;28;20100;-69
2023/09/16 03:11:58;;;;;;;4.60;3.90;;;18.70;69.70;;;;;;5033247;28;20047;-68
2023/09/16 03:14:24;;;;;;;5.88;3.95;;;18.70;69.70;;;;;;5031688;28;20036;-69
2023/09/16 03:16:49;;;;;;;4.97;3.75;;;18.70;69.60;;;;;;5012589;28;20034;-68
2023/09/16 03:19:17;;;;;;;5.50;4.20;;;18.70;69.60;;;;;;5013600;28;20030;-68
2023/09/16 03:21:43;;;;;;;4.60;4.05;;;18.70;69.60;;;;;;5018567;28;20030;-68
2023/09/16 03:24:09;;;;;;;4.50;3.80;;;18.70;69.60;;;;;;5019102;28;20041;-68
2023/09/16 03:26:35;;;;;;;4.38;3.55;;;18.70;69.70;;;;;;5014920;28;20125;-69
2023/09/16 03:29:01;;;;;;;5.15;4.20;;;18.70;69.70;;;;;;5013561;28;20113;-68
2023/09/16 03:31:27;;;;;;;4.95;3.75;;;18.80;69.80;;;;;;5014600;28;20564;-68
2023/09/16 03:33:52;;;;;;;5.82;4.05;;;18.80;69.80;;;;;;5013906;28;20117;-68
2023/09/16 03:36:18;;;;;;;3.97;3.58;;;18.80;69.80;;;;;;5013718;28;20477;-68
2023/09/16 03:38:49;;;;;;;4.38;3.67;;;18.80;69.80;;;;;;5031871;28;20467;-68
2023/09/16 03:41:15;;;;;;;5.97;3.53;;;18.80;69.70;;;;;;5026518;28;20026;-68
2023/09/16 03:43:42;;;;;;;5.22;3.50;;;18.90;69.60;;;;;;5020453;28;20064;-68
2023/09/16 03:46:07;;;;;;;4.78;3.75;;;18.90;69.50;;;;;;5022061;28;20361;-68
2023/09/16 03:48:33;;;;;;;5.25;3.83;;;18.90;69.50;;;;;;5012501;28;20052;-68
2023/09/16 03:50:58;;;;;;;4.60;4.07;;;18.90;69.40;;;;;;5013568;28;20025;-68
2023/09/16 03:53:27;;;;;;;4.60;3.78;;;18.90;69.40;;;;;;5030953;28;20396;-68
2023/09/16 03:55:52;;;;;;;4.82;3.72;;;18.90;69.40;;;;;;5012933;28;20440;-68
2023/09/16 03:58:19;;;;;;;5.57;4.07;;;18.90;69.50;;;;;;5014414;28;20030;-68
2023/09/16 04:00:44;;;;;;;4.35;3.92;;;19.00;69.40;;;;;;5013167;28;20030;-67
2023/09/16 04:03:11;;;;;;;4.75;3.97;;;19.00;69.40;;;;;;5014117;28;20092;-67
2023/09/16 04:05:37;;;;;;;4.20;3.80;;;19.00;69.40;;;;;;5033649;28;20022;-69
2023/09/16 04:08:03;;;;;;;4.95;4.20;;;19.10;69.40;;;;;;5030896;28;20026;-68
2023/09/16 04:10:28;;;;;;;4.35;3.90;;;19.10;69.30;;;;;;5024182;28;20502;-68
2023/09/16 04:12:54;;;;;;;5.05;3.80;;;19.10;69.20;;;;;;5016898;28;20116;-68
2023/09/16 04:15:20;;;;;;;5.68;3.90;;;19.10;69.10;;;;;;5023131;28;20112;-68
2023/09/16 04:17:45;;;;;;;5.03;4.28;;;19.10;69.00;;;;;;5036513;28;20083;-67
2023/09/16 04:20:11;;;;;;;7.35;4.00;;;19.10;69.00;;;;;;5027892;28;20465;-68
2023/09/16 04:22:37;;;;;;;4.53;4.00;;;19.10;68.90;;;;;;5018505;28;20034;-69
2023/09/16 04:25:03;;;;;;;4.40;3.90;;;19.10;68.90;;;;;;5034602;28;20057;-69
2023/09/16 04:27:28;;;;;;;4.50;3.75;;;19.10;68.90;;;;;;5036642;28;20201;-69
2023/09/16 04:29:54;;;;;;;4.72;3.72;;;19.10;68.70;;;;;;5027644;28;20044;-70
2023/09/16 04:32:20;;;;;;;4.95;3.90;;;19.10;68.70;;;;;;5016611;28;20060;-69
2023/09/16 04:34:45;;;;;;;6.07;3.83;;;19.10;68.60;;;;;;5026534;28;20034;-69
2023/09/16 04:37:11;;;;;;;5.05;4.00;;;19.10;68.70;;;;;;5035310;28;20467;-69
2023/09/16 04:39:36;;;;;;;5.38;4.10;;;19.10;68.50;;;;;;5035056;28;20040;-70
2023/09/16 04:42:02;;;;;;;4.47;3.83;;;19.20;68.60;;;;;;5017073;28;20036;-69
2023/09/16 04:44:29;;;;;;;4.75;3.95;;;19.20;68.50;;;;;;5021310;28;20535;-69
2023/09/16 04:46:55;;;;;;;5.13;3.83;;;19.20;68.50;;;;;;5029507;28;20109;-69
2023/09/16 04:49:21;;;;;;;4.97;4.20;;;19.20;68.50;;;;;;5028899;28;20152;-69
2023/09/16 04:51:47;;;;;;;4.65;3.70;;;19.20;68.40;;;;;;5034655;28;20034;-69
2023/09/16 04:54:13;;;;;;;6.35;4.03;;;19.20;68.30;;;;;;5033614;28;20045;-69
2023/09/16 04:56:38;;;;;;;4.80;3.90;;;19.20;68.30;;;;;;5015195;28;20030;-69
2023/09/16 04:59:04;;;;;;;6.82;4.13;;;19.20;68.20;;;;;;5018324;28;20026;-69
2023/09/16 05:01:30;;;;;;;4.28;3.72;;;19.20;68.20;;;;;;5031473;28;20106;-69
2023/09/16 05:03:56;;;;;;;4.47;3.72;;;19.30;68.10;;;;;;5016770;28;20029;-69
2023/09/16 05:06:22;;;;;;;5.05;3.72;;;19.30;68.10;;;;;;5016194;28;20076;-69
2023/09/16 05:08:48;;;;;;;5.93;4.07;;;19.30;68.10;;;;;;5030995;28;20487;-68
2023/09/16 05:11:14;;;;;;;4.93;3.80;;;19.30;67.80;;;;;;5024025;28;20360;-69
2023/09/16 05:13:40;;;;;;;5.15;3.78;;;19.30;67.80;;;;;;5015500;28;20045;-69
2023/09/16 05:16:07;;;;;;;4.75;4.10;;;19.30;67.80;;;;;;5033677;28;20112;-68
2023/09/16 05:18:33;;;;;;;4.32;3.60;;;19.30;67.70;;;;;;5030484;28;20029;-69
2023/09/16 05:20:59;;;;;;;4.57;3.60;;;19.20;67.70;;;;;;5013368;28;20037;-69
2023/09/16 05:23:25;;;;;;;4.07;3.67;;;19.30;67.80;;;;;;5018445;28;20559;-68
2023/09/16 05:25:50;;;;;;;4.68;3.60;;;19.30;67.70;;;;;;5018307;28;20100;-69
2023/09/16 05:28:17;;;;;;;5.38;3.97;;;19.30;67.60;;;;;;5016107;28;20030;-69
2023/09/16 05:30:43;;;;;;;4.68;3.70;;;19.40;67.60;;;;;;5024546;28;20040;-69
2023/09/16 05:33:12;;;;;;;5.95;4.03;;;19.40;67.30;;;;;;5018718;28;20486;-69
2023/09/16 05:35:41;;;;;;;4.38;3.90;;;19.30;67.20;;;;;;5014760;28;20037;-72
2023/09/16 05:38:08;;;;;;;4.32;3.70;;;19.30;67.20;;;;;;5015595;28;20018;-68
2023/09/16 05:40:36;;;;;;;4.20;3.53;;;19.30;67.20;;;;;;5017565;28;20036;-78
2023/09/16 05:43:01;;;;;;;3.55;3.08;;;19.40;67.20;;;;;;5015230;28;20503;-75
2023/09/16 05:45:28;;;;;;;4.22;3.33;;;19.40;67.40;;;;;;5015956;28;20123;-78
2023/09/16 05:47:55;;;;;;;4.30;3.58;;;19.40;67.40;;;;;;5016676;28;20484;-76
2023/09/16 05:50:20;;;;;;;7.97;5.88;;;19.50;67.50;;;;;;5024276;28;20018;-71
2023/09/16 05:52:46;;;;;;;5.78;4.15;;;19.50;67.30;;;;;;5029480;28;20046;-69
2023/09/16 05:55:12;;;;;;;4.00;3.60;;;19.60;67.30;;;;;;5020059;28;20129;-69
2023/09/16 05:57:37;;;;;;;4.28;3.75;;;19.60;67.10;;;;;;5014908;28;20038;-69
2023/09/16 06:00:03;;;;;;;4.97;3.50;;;19.60;66.90;;;;;;5015465;28;20025;-68
2023/09/16 06:02:29;;;;;;;3.80;3.35;;;19.60;66.80;;;;;;5013782;28;20440;-69
2023/09/16 06:04:55;;;;;;;4.30;3.83;;;19.60;66.70;;;;;;5014717;28;20101;-70
2023/09/16 06:07:20;;;;;;;4.43;3.53;;;19.60;66.50;;;;;;5029354;28;20104;-69
2023/09/16 06:09:46;;;;;;;3.92;3.53;;;19.60;66.50;;;;;;5034635;28;20068;-70
2023/09/16 06:12:11;;;;;;;5.10;3.47;;;19.60;66.50;;;;;;5041669;28;20033;-70
2023/09/16 06:14:39;;;;;;;3.70;3.30;;;19.70;66.50;;;;;;5054681;28;20029;-70
2023/09/16 06:17:05;;;;;;;4.95;3.45;;;19.60;66.30;;;;;;5053135;28;20486;-71
2023/09/16 06:19:32;;;;;;;3.50;3.20;;;19.70;66.30;;;;;;5054305;28;20029;-70
2023/09/16 06:21:57;;;;;;;3.40;3.10;;;19.70;66.30;;;;;;5035207;28;20476;-69
2023/09/16 06:24:24;;;;;;;4.55;3.50;;;19.70;66.20;;;;;;5027628;28;20040;-69
2023/09/16 06:26:50;;;;;;;3.80;3.10;;;19.70;66.10;;;;;;5026045;28;20112;-70
2023/09/16 06:29:16;;;;;;;4.35;3.53;;;19.70;66.00;;;;;;5014532;28;20073;-70
2023/09/16 06:31:41;;;;;;;3.85;3.40;;;19.80;66.00;;;;;;5026582;28;20033;-69
2023/09/16 06:34:07;;;;;;;3.80;3.40;;;19.80;65.90;;;;;;5018161;28;20476;-70
2023/09/16 06:36:33;;;;;;;3.88;2.90;;;19.80;65.90;;;;;;5017128;28;20037;-70
2023/09/16 06:38:59;;;;;;;3.63;3.30;;;19.80;65.80;;;;;;5014256;28;20558;-71
2023/09/16 06:41:25;;;;;;;3.95;3.55;;;19.80;65.70;;;;;;5030588;28;20152;-69
2023/09/16 06:43:51;;;;;;;3.40;3.03;;;19.90;65.60;;;;;;5021584;28;20057;-70
2023/09/16 06:46:17;;;;;;;3.72;3.00;;;19.90;65.50;;;;;;5021928;28;20045;-70
2023/09/16 06:48:45;;;;;;;3.55;3.25;;;19.90;65.20;;;;;;5022495;28;20060;-69
2023/09/16 06:51:11;;;;;;;4.10;3.25;;;19.90;65.30;;;;;;5030263;28;20450;-70
2023/09/16 06:53:36;;;;;;;4.43;3.67;;;20.00;65.20;;;;;;5030451;28;20133;-70
2023/09/16 06:56:02;;;;;;;3.80;3.08;;;20.00;65.10;;;;;;5022272;28;20049;-70
2023/09/16 06:58:28;;;;;;;3.53;3.17;;;20.00;64.80;;;;;;5014313;28;20392;-70
2023/09/16 07:00:54;;;;;;;3.85;3.40;;;20.00;64.90;;;;;;5014769;28;20022;-70
2023/09/16 07:03:20;;;;;;;3.45;2.85;;;20.00;64.80;;;;;;5034194;28;20099;-69
2023/09/16 07:05:49;;;;;;;3.25;2.90;;;20.10;64.70;;;;;;5032347;28;20036;-69
2023/09/16 07:08:17;;;;;;;3.03;2.72;;;20.10;64.70;;;;;;5033749;28;20026;-69
2023/09/16 07:10:42;;;;;;;3.20;2.90;;;20.20;64.60;;;;;;5036852;28;20025;-70
2023/09/16 07:13:08;;;;;;;3.53;3.22;;;20.20;64.50;;;;;;5051948;28;20478;-69
2023/09/16 07:15:35;;;;;;;3.42;2.97;;;20.20;64.20;;;;;;5034029;28;20025;-70
2023/09/16 07:18:01;;;;;;;4.40;2.92;;;20.30;64.30;;;;;;5033427;28;20025;-70
2023/09/16 07:20:27;;;;;;;2.97;2.67;;;20.30;64.20;;;;;;5033343;28;20029;-70
2023/09/16 07:22:55;;;;;;;4.35;2.90;;;20.30;64.00;;;;;;5015796;28;20458;-70
2023/09/16 07:25:21;;;;;;;3.53;2.67;;;20.40;63.90;;;;;;5026846;28;20048;-69
2023/09/16 07:27:47;;;;;;;3.90;2.88;;;20.40;63.90;;;;;;5016437;28;20488;-70
2023/09/16 07:30:14;;;;;;;3.70;3.25;;;20.40;63.70;;;;;;5033174;28;20452;-69
2023/09/16 07:32:41;;;;;;;3.15;2.80;;;20.40;63.60;;;;;;5032303;28;20049;-69
2023/09/16 07:35:07;;;;;;;3.00;2.70;;;20.40;63.50;;;;;;5027725;28;20038;-68
2023/09/16 07:37:33;;;;;;;4.15;2.95;;;20.40;63.40;;;;;;5012492;28;20030;-69
2023/09/16 07:39:58;;;;;;;3.13;2.80;;;20.50;63.30;;;;;;5014411;28;20053;-68
2023/09/16 07:42:24;;;;;;;2.95;2.58;;;20.50;63.20;;;;;;5021965;28;20460;-70
2023/09/16 07:44:50;;;;;;;3.10;2.72;;;20.60;63.20;;;;;;5017925;28;20493;-70
2023/09/16 07:47:15;;;;;;;3.63;2.70;;;20.60;63.10;;;;;;5036549;28;20391;-69
2023/09/16 07:49:41;;;;;;;2.83;2.63;;;20.70;63.00;;;;;;5029717;28;20113;-69
2023/09/16 07:52:07;;;;;;;3.47;2.88;;;20.70;62.90;;;;;;5023901;28;20439;-69
2023/09/16 07:54:32;;;;;;;2.90;2.60;;;20.70;62.80;;;;;;5036792;28;20052;-68
2023/09/16 07:56:58;;;;;;;3.47;2.70;;;20.70;62.60;;;;;;5022992;28;20483;-69
2023/09/16 07:59:24;;;;;;;3.20;2.90;;;20.80;62.50;;;;;;5035590;28;20025;-69
2023/09/16 08:01:49;;;;;;;2.80;2.47;;;20.80;62.40;;;;;;5028598;28;20017;-69
2023/09/16 08:04:15;;;;;;;3.00;2.67;;;20.90;62.20;;;;;;5015949;28;20033;-69
2023/09/16 08:06:40;;;;;;;4.07;3.03;;;20.80;62.10;;;;;;5016870;28;20030;-70
2023/09/16 08:09:06;;;;;;;2.90;2.60;;;20.90;62.00;;;;;;5017359;28;20026;-70
2023/09/16 08:11:32;;;;;;;2.78;2.58;;;20.90;61.90;;;;;;5052752;28;20375;-69
2023/09/16 08:13:57;;;;;;;2.95;2.65;;;20.90;61.90;;;;;;5049103;28;20025;-68
2023/09/16 08:16:23;;;;;;;2.92;2.45;;;21.00;61.90;;;;;;5045890;28;20033;-69
2023/09/16 08:18:49;;;;;;;3.13;2.83;;;21.00;61.70;;;;;;5055287;28;20032;-68
2023/09/16 08:21:14;;;;;;;3.63;2.47;;;21.00;61.60;;;;;;5038331;28;20030;-68
2023/09/16 08:23:41;;;;;;;3.10;2.70;;;21.10;61.60;;;;;;5016971;28;20036;-68
2023/09/16 08:26:06;;;;;;;2.53;2.33;;;21.10;61.60;;;;;;5016870;28;20026;-68
2023/09/16 08:28:35;;;;;;;3.00;2.70;;;21.10;61.40;;;;;;5019597;28;20032;-69
2023/09/16 08:31:02;;;;;;;3.22;2.42;;;21.20;61.10;;;;;;5035174;28;20033;-68
2023/09/16 08:33:27;;;;;;;2.97;2.67;;;21.20;61.00;;;;;;5030562;28;20042;-69
2023/09/16 08:35:53;;;;;;;2.60;2.40;;;21.20;61.00;;;;;;5020307;28;20041;-69
2023/09/16 08:38:18;;;;;;;3.60;2.42;;;21.20;60.90;;;;;;5030371;28;20484;-69
2023/09/16 08:40:46;;;;;;;2.40;2.20;;;21.30;60.70;;;;;;5029775;28;20026;-69
2023/09/16 08:43:20;;;;;;;2.78;2.33;;;21.30;60.60;;;;;;5018256;28;20044;-70
2023/09/16 08:45:55;;;;;;;3.40;2.60;;;21.30;60.50;;;;;;5020992;28;20030;-68
2023/09/16 08:48:23;;;;;;;2.30;2.10;;;21.40;60.40;;;;;;5022522;28;20113;-69
2023/09/16 08:50:51;;;;;;;2.30;2.10;;;21.40;60.40;;;;;;5033586;28;20606;-69
2023/09/16 08:53:19;;;;;;;3.45;2.35;;;21.40;60.30;;;;;;5020074;28;20042;-69
2023/09/16 08:55:45;;;;;;;2.50;2.30;;;21.50;60.30;;;;;;5016863;28;20050;-69
2023/09/16 08:58:12;;;;;;;2.40;2.20;;;21.50;60.10;;;;;;5033992;28;20028;-69
2023/09/16 09:00:38;;;;;;;2.28;2.08;;;21.50;60.10;;;;;;5054618;28;20032;-69
2023/09/16 09:03:04;;;;;;;2.53;2.33;;;21.60;60.00;;;;;;5043626;28;20037;-69
2023/09/16 09:05:34;;;;;;;2.10;1.90;;;21.60;59.80;;;;;;5035803;28;20026;-69
2023/09/16 09:08:00;;;;;;;3.58;2.10;;;21.60;59.70;;;;;;5035589;28;20057;-69
2023/09/16 09:10:26;;;;;;;3.95;2.00;;;21.70;59.50;;;;;;5034604;28;20076;-69
2023/09/16 09:12:52;;;;;;;2.22;2.03;;;21.70;59.40;;;;;;5035582;28;20091;-69
2023/09/16 09:15:18;;;;;;;2.20;2.00;;;21.70;60.00;;;;;;5028759;28;20048;-69
2023/09/16 09:17:54;;;;;;;2.67;1.98;;;21.70;59.30;;;;;;5034264;28;20044;-68
2023/09/16 09:20:23;;;;;;;2.55;2.20;;;21.80;59.10;;;;;;5035598;28;20440;-70
2023/09/16 09:22:50;;;;;;;2.00;1.90;;;21.80;59.10;;;;;;5033772;28;20108;-69
2023/09/16 09:25:22;;;;;;;2.17;1.70;;;21.90;59.10;;;;;;5034275;28;20475;-69
2023/09/16 09:27:50;;;;;;;2.00;1.90;;;21.90;58.90;;;;;;5035181;28;20025;-70
2023/09/16 09:30:16;;;;;;;1.90;1.80;;;21.90;58.90;;;;;;5035442;28;20030;-70
2023/09/16 09:32:45;;;;;;;2.22;2.00;;;21.90;58.80;;;;;;5035135;28;20047;-69
2023/09/16 09:35:11;;;;;;;2.42;1.92;;;22.00;58.80;;;;;;5024981;28;20041;-70
2023/09/16 09:37:38;;;;;;;2.17;1.77;;;22.00;58.50;;;;;;5021572;28;20025;-70
2023/09/16 09:40:11;;;;;;;2.25;2.05;;;22.10;58.40;;;;;;5035287;28;20076;-70
2023/09/16 09:42:40;;;;;;;2.40;2.20;;;22.10;58.20;;;;;;5025988;28;20033;-69
2023/09/16 09:45:06;;;;;;;1.90;1.80;;;22.10;58.30;;;;;;5025350;28;20068;-69
2023/09/16 09:47:32;;;;;;;2.08;1.90;;;22.20;58.10;;;;;;5030510;28;20029;-70
2023/09/16 09:49:59;;;;;;;1.90;1.80;;;22.20;58.00;;;;;;5017018;28;20465;-70
2023/09/16 09:52:25;;;;;;;2.13;1.92;;;22.20;57.80;;;;;;5030214;28;20038;-69
2023/09/16 09:54:55;;;;;;;1.80;1.70;;;22.20;57.60;;;;;;5020947;28;20373;-69
2023/09/16 09:57:22;;;;;;;1.75;1.65;;;22.30;57.40;;;;;;5014936;28;20534;-70
2023/09/16 09:59:48;;;;;;;2.00;1.90;;;22.30;57.30;;;;;;5022351;28;20031;-70
2023/09/16 10:02:14;;;;;;;1.70;1.60;;;22.30;57.20;;;;;;5015758;28;20472;-70
2023/09/16 10:04:40;;;;;;;4.57;2.10;;;22.30;57.10;;;;;;5025785;28;20033;-70
2023/09/16 10:07:07;;;;;;;2.17;1.98;;;22.30;57.00;;;;;;5014432;28;20026;-69
2023/09/16 10:09:33;;;;;;;1.83;1.73;;;22.30;57.00;;;;;;5027377;28;20491;-70
2023/09/16 10:12:00;;;;;;;2.00;1.80;;;22.40;56.90;;;;;;5034356;28;20035;-70
2023/09/16 10:14:25;;;;;;;2.92;2.10;;;22.40;56.60;;;;;;5032859;28;20068;-70
2023/09/16 10:16:52;;;;;;;2.00;1.90;;;22.40;56.50;;;;;;5014563;28;20069;-70
2023/09/16 10:19:20;;;;;;;1.85;1.75;;;22.40;56.30;;;;;;5014705;28;20102;-70
2023/09/16 10:21:45;;;;;;;2.05;1.85;;;22.40;56.30;;;;;;5028673;28;20053;-69
2023/09/16 10:24:12;;;;;;;2.20;2.00;;;22.40;56.30;;;;;;5034106;28;20506;-69
2023/09/16 10:26:38;;;;;;;1.90;1.80;;;22.50;56.10;;;;;;5034264;28;20026;-69
2023/09/16 10:29:05;;;;;;;2.05;1.95;;;22.50;56.10;;;;;;5034127;28;20455;-69
2023/09/16 10:31:32;;;;;;;1.70;1.60;;;22.50;55.80;;;;;;5033850;28;20029;-70
2023/09/16 10:33:58;;;;;;;3.25;1.70;;;22.50;55.70;;;;;;5034004;28;20045;-69
2023/09/16 10:36:25;;;;;;;2.00;1.90;;;22.60;55.80;;;;;;5040485;28;20048;-69
2023/09/16 10:38:51;;;;;;;2.10;2.00;;;22.60;55.70;;;;;;5040282;28;20026;-70
2023/09/16 10:41:18;;;;;;;1.80;1.50;;;22.60;55.60;;;;;;5014664;28;20421;-69
2023/09/16 10:43:46;;;;;;;2.55;1.65;;;22.60;55.50;;;;;;5032029;28;20037;-70
2023/09/16 10:46:13;;;;;;;2.00;1.80;;;22.70;55.50;;;;;;5025832;28;20056;-69
2023/09/16 10:48:38;;;;;;;2.10;1.67;;;22.70;55.40;;;;;;5014082;28;20031;-69
2023/09/16 10:51:18;;;;;;;1.70;1.60;;;22.70;55.30;;;;;;5020790;28;20032;-69
2023/09/16 10:53:48;;;;;;;1.92;1.83;;;22.70;55.00;;;;;;5025863;28;20041;-70
2023/09/16 10:56:23;;;;;;;1.80;1.70;;;22.70;54.50;;;;;;5030281;28;20036;-70
2023/09/16 10:58:54;;;;;;;2.03;1.90;;;22.70;54.50;;;;;;5033716;28;20025;-70
2023/09/16 11:01:33;;;;;;;1.88;1.75;;;22.70;54.50;;;;;;5033864;28;20035;-70
2023/09/16 11:04:09;;;;;;;1.88;1.70;;;22.70;54.20;;;;;;5034145;28;20033;-70
2023/09/16 11:06:34;;;;;;;1.50;1.40;;;22.80;54.30;;;;;;5033924;28;20029;-71
2023/09/16 11:09:00;;;;;;;2.17;1.98;;;22.80;54.30;;;;;;5032401;28;20032;-69
2023/09/16 11:11:26;;;;;;;3.00;1.95;;;22.80;54.20;;;;;;5033578;28;20030;-68
2023/09/16 11:13:53;;;;;;;2.20;1.98;;;22.90;54.10;;;;;;5033516;28;20529;-70
2023/09/16 11:16:21;;;;;;;1.80;1.70;;;22.90;54.10;;;;;;5032236;28;20068;-71
2023/09/16 11:18:51;;;;;;;2.08;1.73;;;22.90;54.10;;;;;;5032783;28;20108;-69
2023/09/16 11:21:19;;;;;;;1.88;1.77;;;22.90;54.00;;;;;;5020166;28;20026;-70
2023/09/16 11:23:46;;;;;;;1.88;1.70;;;23.00;54.10;;;;;;5030564;28;20036;-70
2023/09/16 11:26:22;;;;;;;1.83;1.65;;;23.00;54.00;;;;;;5032666;28;20029;-70
2023/09/16 11:28:51;;;;;;;1.85;1.73;;;23.10;53.90;;;;;;5033271;28;20032;-70
2023/09/16 11:31:16;;;;;;;1.90;1.80;;;23.10;53.80;;;;;;5033498;28;20032;-69
2023/09/16 11:33:42;;;;;;;1.63;1.52;;;23.10;53.80;;;;;;5033319;28;20046;-70
2023/09/16 11:36:10;;;;;;;1.80;1.60;;;23.10;53.70;;;;;;5032002;28;20115;-69
2023/09/16 11:38:38;;;;;;;2.10;1.90;;;23.10;53.70;;;;;;5033247;28;20026;-69
2023/09/16 11:41:09;;;;;;;1.70;1.60;;;23.20;53.70;;;;;;5033105;28;20080;-70
2023/09/16 11:43:39;;;;;;;1.70;1.60;;;23.20;53.60;;;;;;5033263;28;20029;-70
2023/09/16 11:46:06;;;;;;;1.80;1.70;;;23.30;53.60;;;;;;5033656;28;20029;-68
2023/09/16 11:48:56;;;;;;;1.92;1.80;;;23.30;53.60;;;;;;5031965;28;20472;-69
2023/09/16 11:51:24;;;;;;;1.80;1.70;;;23.30;53.30;;;;;;5022306;28;20049;-70
2023/09/16 11:53:52;;;;;;;2.10;1.65;;;23.30;53.50;;;;;;5013229;28;20080;-70
2023/09/16 11:56:20;;;;;;;1.80;1.70;;;23.30;53.40;;;;;;5013023;28;20434;-71
2023/09/16 11:58:46;;;;;;;1.70;1.60;;;23.40;53.40;;;;;;5013526;28;20029;-69
2023/09/16 12:01:13;;;;;;;1.73;1.63;;;23.40;53.30;;;;;;5012164;28;20030;-71
2023/09/16 12:03:42;;;;;;;1.77;1.60;;;23.40;53.20;;;;;;5013322;28;20026;-69
2023/09/16 12:06:09;;;;;;;1.83;1.73;;;23.40;53.10;;;;;;5013030;28;20053;-69
2023/09/16 12:08:35;;;;;;;1.65;1.55;;;23.40;53.10;;;;;;5012614;28;20022;-69
2023/09/16 12:11:01;;;;;;;1.70;1.60;;;23.50;53.10;;;;;;5013313;28;20056;-70
2023/09/16 12:13:29;;;;;;;1.73;1.63;;;23.50;53.00;;;;;;5013249;28;20026;-69
2023/09/16 12:15:54;;;;;;;1.55;1.45;;;23.50;53.00;;;;;;5011848;28;20060;-70
2023/09/16 12:18:20;;;;;;;1.90;1.80;;;23.50;53.00;;;;;;5013028;28;20030;-70
2023/09/16 12:20:46;;;;;;;1.73;1.63;;;23.60;53.10;;;;;;5012894;28;20030;-70
2023/09/16 12:23:14;;;;;;;2.00;1.85;;;23.60;53.80;;;;;;5013595;28;20033;-69
2023/09/16 12:25:41;;;;;;;1.80;1.70;;;23.60;53.10;;;;;;5027847;28;20023;-70
2023/09/16 12:28:16;;;;;;;1.70;1.60;;;23.60;53.00;;;;;;5031224;28;20467;-69
2023/09/16 12:30:43;;;;;;;2.00;1.80;;;23.70;52.90;;;;;;5033065;28;20028;-70
2023/09/16 12:33:09;;;;;;;1.65;1.55;;;23.70;52.80;;;;;;5036488;28;20391;-69
2023/09/16 12:35:38;;;;;;;1.80;1.70;;;23.80;52.80;;;;;;5034974;28;20073;-69
2023/09/16 12:38:04;;;;;;;1.80;1.70;;;23.90;52.70;;;;;;5036401;28;20017;-69
2023/09/16 12:40:32;;;;;;;1.85;1.75;;;23.90;52.50;;;;;;5036277;28;20033;-69
2023/09/16 12:42:58;;;;;;;1.77;1.67;;;23.90;52.30;;;;;;5036435;28;20108;-70
2023/09/16 12:45:24;;;;;;;1.80;1.70;;;23.90;52.20;;;;;;5035076;28;20026;-69